createdAt,value
2023-04-08T00:00:56.565Z,86.68
2023-04-08T00:01:56.655Z,87.16
2023-04-08T00:02:56.656Z,87.47
2023-04-08T00:03:56.740Z,87.68
2023-04-08T00:04:56.656Z,87.68
2023-04-08T00:05:56.532Z,87.78
2023-04-08T00:06:56.495Z,88.61
2023-04-08T00:07:56.490Z,88.71
2023-04-08T00:08:56.495Z,88.51
2023-04-08T00:09:56.470Z,88.40
2023-04-08T00:10:56.463Z,87.99
2023-04-08T00:11:56.469Z,87.26
2023-04-08T00:12:56.449Z,87.47
2023-04-08T00:13:56.433Z,88.09
2023-04-08T00:14:56.423Z,88.40
2023-04-08T00:15:56.408Z,88.61
2023-04-08T00:16:56.424Z,87.84
2023-04-08T00:17:56.512Z,88.05
2023-04-08T00:18:56.373Z,88.67
2023-04-08T00:19:56.376Z,88.67
2023-04-08T00:20:56.365Z,88.36
2023-04-08T00:21:56.341Z,88.36
2023-04-08T00:22:56.347Z,87.95
2023-04-08T00:23:56.333Z,88.15
2023-04-08T00:24:56.314Z,87.12
2023-04-08T00:25:56.310Z,87.74
2023-04-08T00:26:56.290Z,87.95
2023-04-08T00:27:56.292Z,87.43
2023-04-08T00:28:56.287Z,88.26
2023-04-08T00:29:56.259Z,88.26
2023-04-08T00:30:56.346Z,88.26
2023-04-08T00:31:56.244Z,88.57
2023-04-08T00:32:56.299Z,89.29
2023-04-08T00:33:56.234Z,89.19
2023-04-08T00:34:56.215Z,89.40
2023-04-08T00:35:56.241Z,89.40
2023-04-08T00:36:56.197Z,89.50
2023-04-08T00:37:56.203Z,88.98
2023-04-08T00:38:56.168Z,89.09
2023-04-08T00:39:56.158Z,89.40
2023-04-08T00:40:56.152Z,89.29
2023-04-08T00:41:56.139Z,89.09
2023-04-08T00:42:56.141Z,88.78
2023-04-08T00:43:56.142Z,88.98
2023-04-08T00:44:56.103Z,89.09
2023-04-08T00:45:56.118Z,88.67
2023-04-08T00:46:56.095Z,88.78
2023-04-08T00:47:56.083Z,88.57
2023-04-08T00:48:56.086Z,87.95
2023-04-08T00:49:56.063Z,87.84
2023-04-08T00:50:56.041Z,88.01
2023-04-08T00:51:56.035Z,88.42
2023-04-08T00:52:56.032Z,88.63
2023-04-08T00:53:56.010Z,88.84
2023-04-08T00:54:56.024Z,88.73
2023-04-08T00:55:55.999Z,88.73
2023-04-08T00:56:55.985Z,88.32
2023-04-08T00:57:55.973Z,87.49
2023-04-08T00:58:55.966Z,87.90
2023-04-08T00:59:55.987Z,88.42
2023-04-08T01:00:55.940Z,88.84
2023-04-08T01:01:56.028Z,88.94
2023-04-08T01:02:56.019Z,89.25
2023-04-08T01:03:55.971Z,89.67
2023-04-08T01:04:55.911Z,89.67
2023-04-08T01:05:55.903Z,89.25
2023-04-08T01:06:55.885Z,88.84
2023-04-08T01:07:55.878Z,89.04
2023-04-08T01:08:55.851Z,89.25
2023-04-08T01:09:55.869Z,89.67
2023-04-08T01:10:55.859Z,89.46
2023-04-08T01:11:55.829Z,89.25
2023-04-08T01:12:55.931Z,89.15
2023-04-08T01:13:55.816Z,89.46
2023-04-08T01:14:55.798Z,89.25
2023-04-08T01:15:55.892Z,88.94
2023-04-08T01:16:55.796Z,89.25
2023-04-08T01:17:55.797Z,88.94
2023-04-08T01:18:55.757Z,88.73
2023-04-08T01:19:55.758Z,88.53
2023-04-08T01:20:55.794Z,88.21
2023-04-08T01:21:55.733Z,88.48
2023-04-08T01:22:55.720Z,88.18
2023-04-08T01:23:55.724Z,88.18
2023-04-08T01:24:55.691Z,87.97
2023-04-08T01:25:55.695Z,88.18
2023-04-08T01:26:55.698Z,89.00
2023-04-08T01:27:55.657Z,88.59
2023-04-08T01:28:55.676Z,88.69
2023-04-08T01:29:55.652Z,87.66
2023-04-08T01:30:55.701Z,87.24
2023-04-08T01:31:55.626Z,87.45
2023-04-08T01:32:55.689Z,87.45
2023-04-08T01:33:55.601Z,87.14
2023-04-08T01:34:55.606Z,87.76
2023-04-08T01:35:55.814Z,88.39
2023-04-08T01:36:57.273Z,89.00
2023-04-08T01:37:55.564Z,88.90
2023-04-08T01:38:55.551Z,88.39
2023-04-08T01:39:55.538Z,88.18
2023-04-08T01:40:55.543Z,87.87
2023-04-08T01:41:55.533Z,89.00
2023-04-08T01:42:55.508Z,89.62
2023-04-08T01:43:55.508Z,90.14
2023-04-08T01:44:55.483Z,90.14
2023-04-08T01:45:55.482Z,89.94
2023-04-08T01:46:55.593Z,89.42
2023-04-08T01:47:55.496Z,89.62
2023-04-08T01:48:55.444Z,90.25
2023-04-08T01:49:55.440Z,89.83
2023-04-08T01:50:55.447Z,90.04
2023-04-08T01:51:55.420Z,90.14
2023-04-08T01:52:55.423Z,89.83
2023-04-08T01:53:55.395Z,89.83
2023-04-08T01:54:55.383Z,89.42
2023-04-08T01:55:55.383Z,88.59
2023-04-08T01:56:55.386Z,88.18
2023-04-08T01:57:55.356Z,87.35
2023-04-08T01:58:55.351Z,87.14
2023-04-08T01:59:55.329Z,87.55
2023-04-08T02:00:55.322Z,87.97
2023-04-08T02:01:55.400Z,88.39
2023-04-08T02:02:55.447Z,87.87
2023-04-08T02:03:55.334Z,89.21
2023-04-08T02:04:55.281Z,89.73
2023-04-08T02:05:55.290Z,89.83
2023-04-08T02:06:55.260Z,89.73
2023-04-08T02:07:55.264Z,89.00
2023-04-08T02:08:55.248Z,88.48
2023-04-08T02:09:55.225Z,88.59
2023-04-08T02:10:55.249Z,88.28
2023-04-08T02:11:55.205Z,87.97
2023-04-08T02:12:55.199Z,87.97
2023-04-08T02:13:55.187Z,87.76
2023-04-08T02:14:55.177Z,87.76
2023-04-08T02:15:55.198Z,88.48
2023-04-08T02:16:55.181Z,89.21
2023-04-08T02:17:55.190Z,89.62
2023-04-08T02:18:55.131Z,90.14
2023-04-08T02:19:55.133Z,89.83
2023-04-08T02:20:55.118Z,89.62
2023-04-08T02:21:55.122Z,88.79
2023-04-08T02:22:55.109Z,88.28
2023-04-08T02:23:55.092Z,87.55
2023-04-08T02:24:55.074Z,88.48
2023-04-08T02:25:55.097Z,88.79
2023-04-08T02:26:55.052Z,88.90
2023-04-08T02:27:55.064Z,88.55
2023-04-08T02:28:55.049Z,88.65
2023-04-08T02:29:55.026Z,88.13
2023-04-08T02:30:55.014Z,87.82
2023-04-08T02:33:22.452Z,87.93
2023-04-08T02:33:27.867Z,88.55
2023-04-08T02:34:27.868Z,88.96
2023-04-08T02:35:27.915Z,89.38
2023-04-08T02:36:27.851Z,89.69
2023-04-08T02:37:27.828Z,89.89
2023-04-08T02:38:27.846Z,89.38
2023-04-08T02:39:27.816Z,89.48
2023-04-08T02:40:27.802Z,89.89
2023-04-08T02:41:27.802Z,90.20
2023-04-08T02:42:27.783Z,90.31
2023-04-08T02:43:27.769Z,90.31
2023-04-08T02:44:27.761Z,90.20
2023-04-08T02:45:27.752Z,90.52
2023-04-08T02:46:27.738Z,91.14
2023-04-08T02:47:27.774Z,90.83
2023-04-08T02:48:27.722Z,90.52
2023-04-08T02:49:27.705Z,90.41
2023-04-08T02:50:27.710Z,90.83
2023-04-08T02:51:27.686Z,91.24
2023-04-08T02:52:27.688Z,91.24
2023-04-08T02:53:27.667Z,91.35
2023-04-08T02:54:27.659Z,91.24
2023-04-08T02:55:27.640Z,91.14
2023-04-08T02:56:27.633Z,91.24
2023-04-08T02:57:27.631Z,91.55
2023-04-08T02:58:27.664Z,91.66
2023-04-08T02:59:27.596Z,91.24
2023-04-08T03:00:27.600Z,91.14
2023-04-08T03:01:27.739Z,91.03
2023-04-08T03:02:27.670Z,91.24
2023-04-08T03:03:27.797Z,91.76
2023-04-08T03:04:27.557Z,92.07
2023-04-08T03:05:27.552Z,92.18
2023-04-08T03:06:27.532Z,91.55
2023-04-08T03:07:27.514Z,91.66
2023-04-08T03:08:27.511Z,91.97
2023-04-08T03:09:27.537Z,91.97
2023-04-08T03:10:27.494Z,91.86
2023-04-08T03:11:27.483Z,92.07
2023-04-08T03:12:27.478Z,92.18
2023-04-08T03:13:27.453Z,92.49
2023-04-08T03:14:27.446Z,92.38
2023-04-08T03:15:27.494Z,92.38
2023-04-08T03:16:27.437Z,92.49
2023-04-08T03:17:27.439Z,92.49
2023-04-08T03:18:27.411Z,92.69
2023-04-08T03:19:27.391Z,93.10
2023-04-08T03:20:27.412Z,93.10
2023-04-08T03:21:27.394Z,92.69
2023-04-08T03:22:27.365Z,92.49
2023-04-08T03:23:27.355Z,92.49
2023-04-08T03:24:27.350Z,92.49
2023-04-08T03:25:27.343Z,92.38
2023-04-08T03:26:27.325Z,91.97
2023-04-08T03:27:27.361Z,91.86
2023-04-08T03:28:27.308Z,92.18
2023-04-08T03:29:27.296Z,92.38
2023-04-08T03:30:27.290Z,92.90
2023-04-08T03:31:27.288Z,92.59
2023-04-08T03:32:27.305Z,92.80
2023-04-08T03:33:27.271Z,92.38
2023-04-08T03:34:27.253Z,92.90
2023-04-08T03:35:27.236Z,93.10
2023-04-08T03:36:27.239Z,93.10
2023-04-08T03:37:27.233Z,93.10
2023-04-08T03:38:27.214Z,93.21
2023-04-08T03:39:27.201Z,93.41
2023-04-08T03:40:27.181Z,93.31
2023-04-08T03:41:27.178Z,93.00
2023-04-08T03:42:27.187Z,93.52
2023-04-08T03:43:27.174Z,93.73
2023-04-08T03:44:27.155Z,93.52
2023-04-08T03:45:27.141Z,93.31
2023-04-08T03:46:27.153Z,93.62
2023-04-08T03:47:27.147Z,93.62
2023-04-08T03:48:27.126Z,93.41
2023-04-08T03:49:27.097Z,93.21
2023-04-08T03:50:27.100Z,93.10
2023-04-08T03:51:27.080Z,92.69
2023-04-08T03:52:27.062Z,93.21
2023-04-08T03:53:27.074Z,93.62
2023-04-08T03:54:27.075Z,93.83
2023-04-08T03:55:27.040Z,93.93
2023-04-08T03:56:27.020Z,94.04
2023-04-08T03:57:27.044Z,94.14
2023-04-08T03:58:27.008Z,94.14
2023-04-08T03:59:26.993Z,94.14
2023-04-08T04:00:27.027Z,94.04
2023-04-08T04:01:26.979Z,93.93
2023-04-08T04:02:27.141Z,94.24
2023-04-08T04:03:27.057Z,93.93
2023-04-08T04:04:27.099Z,93.83
2023-04-08T04:05:26.931Z,93.83
2023-04-08T04:06:26.944Z,94.04
2023-04-08T04:07:26.916Z,94.14
2023-04-08T04:08:26.921Z,93.52
2023-04-08T04:09:26.897Z,93.31
2023-04-08T04:10:26.878Z,93.31
2023-04-08T04:11:26.890Z,93.52
2023-04-08T04:12:26.863Z,94.04
2023-04-08T04:13:26.851Z,94.14
2023-04-08T04:14:26.841Z,93.83
2023-04-08T04:15:26.850Z,94.04
2023-04-08T04:16:26.836Z,93.62
2023-04-08T04:17:26.828Z,93.73
2023-04-08T04:18:26.851Z,93.52
2023-04-08T04:19:26.795Z,93.41
2023-04-08T04:20:26.785Z,93.21
2023-04-08T04:21:26.816Z,93.21
2023-04-08T04:22:26.709Z,93.41
2023-04-08T04:23:26.752Z,93.93
2023-04-08T04:24:26.754Z,94.04
2023-04-08T04:25:26.739Z,94.14
2023-04-08T04:26:26.715Z,94.24
2023-04-08T04:27:26.740Z,94.24
2023-04-08T04:28:26.716Z,93.83
2023-04-08T04:29:26.703Z,94.04
2023-04-08T04:30:26.638Z,94.14
2023-04-08T04:31:26.784Z,94.04
2023-04-08T04:32:26.626Z,94.45
2023-04-08T04:33:26.596Z,94.97
2023-04-08T04:34:26.602Z,95.18
2023-04-08T04:35:26.630Z,95.28
2023-04-08T04:36:26.569Z,95.18
2023-04-08T04:37:26.552Z,95.07
2023-04-08T04:38:26.600Z,95.18
2023-04-08T04:39:26.558Z,95.28
2023-04-08T04:40:26.540Z,95.07
2023-04-08T04:41:26.543Z,94.66
2023-04-08T04:42:26.509Z,95.18
2023-04-08T04:43:26.496Z,95.49
2023-04-08T04:44:26.480Z,95.49
2023-04-08T04:45:26.483Z,95.39
2023-04-08T04:46:26.530Z,95.39
2023-04-08T04:47:26.472Z,95.18
2023-04-08T04:48:26.443Z,95.39
2023-04-08T04:49:26.430Z,95.39
2023-04-08T04:50:26.423Z,95.49
2023-04-08T04:51:26.416Z,95.59
2023-04-08T04:52:26.424Z,95.80
2023-04-08T04:53:26.400Z,95.80
2023-04-08T04:54:26.379Z,96.11
2023-04-08T04:55:26.384Z,96.31
2023-04-08T04:56:26.359Z,96.21
2023-04-08T04:57:26.354Z,96.11
2023-04-08T04:58:26.351Z,96.01
2023-04-08T04:59:26.334Z,96.11
2023-04-08T05:00:26.319Z,96.21
2023-04-08T05:01:26.345Z,96.21
2023-04-08T05:02:26.387Z,96.21
2023-04-08T05:03:26.414Z,96.21
2023-04-08T05:04:26.289Z,96.42
2023-04-08T05:05:26.399Z,96.62
2023-04-08T05:06:26.267Z,96.73
2023-04-08T05:07:26.263Z,97.25
2023-04-08T05:08:27.775Z,97.56
2023-04-08T05:09:26.250Z,97.45
2023-04-08T05:10:26.239Z,97.35
2023-04-08T05:11:26.211Z,97.04
2023-04-08T05:12:26.208Z,96.62
2023-04-08T05:13:26.206Z,96.42
2023-04-08T05:14:26.210Z,96.31
2023-04-08T05:15:26.181Z,96.31
2023-04-08T05:16:26.241Z,96.31
2023-04-08T05:17:26.205Z,96.42
2023-04-08T05:18:26.156Z,96.21
2023-04-08T05:19:26.161Z,96.52
2023-04-08T05:20:26.147Z,96.73
2023-04-08T05:21:26.127Z,96.94
2023-04-08T05:22:26.108Z,97.14
2023-04-08T05:23:26.097Z,97.14
2023-04-08T05:24:26.088Z,97.14
2023-04-08T05:25:26.096Z,97.25
2023-04-08T05:26:26.064Z,97.25
2023-04-08T05:27:26.054Z,97.35
2023-04-08T05:28:26.055Z,97.45
2023-04-08T05:29:26.030Z,97.35
2023-04-08T05:30:26.052Z,97.14
2023-04-08T05:31:26.140Z,97.04
2023-04-08T05:32:26.021Z,96.83
2023-04-08T05:33:25.992Z,97.14
2023-04-08T05:34:25.990Z,97.45
2023-04-08T05:35:26.028Z,97.66
2023-04-08T05:36:25.978Z,97.72
2023-04-08T05:37:25.961Z,97.77
2023-04-08T05:38:25.961Z,97.62
2023-04-08T05:39:25.948Z,97.62
2023-04-08T05:40:25.937Z,97.52
2023-04-08T05:41:25.916Z,97.41
2023-04-08T05:42:25.898Z,97.52
2023-04-08T05:43:25.913Z,97.72
2023-04-08T05:44:25.923Z,97.62
2023-04-08T05:45:25.887Z,97.62
2023-04-08T05:46:25.892Z,97.62
2023-04-08T05:47:25.869Z,97.52
2023-04-08T05:48:25.852Z,97.72
2023-04-08T05:49:25.849Z,97.62
2023-04-08T05:50:25.828Z,97.83
2023-04-08T05:51:25.810Z,97.62
2023-04-08T05:52:25.823Z,97.62
2023-04-08T05:53:25.789Z,97.41
2023-04-08T05:54:25.784Z,97.31
2023-04-08T05:55:25.766Z,97.52
2023-04-08T05:56:25.768Z,97.52
2023-04-08T05:57:25.772Z,97.20
2023-04-08T05:58:25.752Z,97.00
2023-04-08T05:59:25.732Z,96.89
2023-04-08T06:00:25.727Z,96.79
2023-04-08T06:01:25.704Z,96.89
2023-04-08T06:02:26.013Z,97.00
2023-04-08T06:03:25.832Z,97.41
2023-04-08T06:04:25.745Z,97.10
2023-04-08T06:05:25.671Z,97.00
2023-04-08T06:06:25.647Z,97.10
2023-04-08T06:07:25.645Z,97.41
2023-04-08T06:08:25.662Z,97.31
2023-04-08T06:09:25.624Z,97.31
2023-04-08T06:10:25.614Z,97.41
2023-04-08T06:11:25.609Z,97.10
2023-04-08T06:12:25.602Z,97.00
2023-04-08T06:13:25.624Z,97.10
2023-04-08T06:14:25.772Z,96.89
2023-04-08T06:15:25.575Z,97.10
2023-04-08T06:16:25.564Z,97.00
2023-04-08T06:17:25.578Z,97.10
2023-04-08T06:18:25.532Z,97.10
2023-04-08T06:19:25.548Z,97.00
2023-04-08T06:20:25.517Z,97.20
2023-04-08T06:21:25.503Z,97.31
2023-04-08T06:22:25.490Z,97.00
2023-04-08T06:23:25.476Z,97.00
2023-04-08T06:24:25.469Z,96.69
2023-04-08T06:25:25.487Z,96.58
2023-04-08T06:26:25.455Z,96.69
2023-04-08T06:27:25.484Z,96.79
2023-04-08T06:28:25.434Z,97.00
2023-04-08T06:29:25.421Z,97.20
2023-04-08T06:30:25.424Z,97.10
2023-04-08T06:31:25.431Z,97.20
2023-04-08T06:32:25.415Z,97.10
2023-04-08T06:33:25.376Z,97.00
2023-04-08T06:34:25.374Z,97.10
2023-04-08T06:35:25.428Z,97.20
2023-04-08T06:36:25.367Z,97.41
2023-04-08T06:37:25.353Z,97.52
2023-04-08T06:38:25.334Z,97.31
2023-04-08T06:39:25.321Z,97.20
2023-04-08T06:40:25.381Z,97.20
2023-04-08T06:41:25.302Z,96.89
2023-04-08T06:42:25.290Z,97.00
2023-04-08T06:43:25.302Z,97.20
2023-04-08T06:44:25.265Z,97.20
2023-04-08T06:45:25.251Z,97.31
2023-04-08T06:46:25.335Z,97.41
2023-04-08T06:47:25.260Z,97.72
2023-04-08T06:48:25.224Z,97.93
2023-04-08T06:49:25.227Z,97.72
2023-04-08T06:50:25.215Z,97.72
2023-04-08T06:51:25.213Z,97.83
2023-04-08T06:52:25.191Z,97.83
2023-04-08T06:53:25.173Z,97.83
2023-04-08T06:54:25.173Z,97.72
2023-04-08T06:55:25.164Z,97.62
2023-04-08T06:56:25.153Z,97.72
2023-04-08T06:57:25.146Z,97.83
2023-04-08T06:58:25.132Z,97.52
2023-04-08T06:59:25.113Z,97.62
2023-04-08T07:00:25.107Z,97.72
2023-04-08T07:01:25.190Z,97.52
2023-04-08T07:02:25.232Z,97.41
2023-04-08T07:03:25.108Z,97.72
2023-04-08T07:04:25.280Z,97.52
2023-04-08T07:05:25.057Z,97.41
2023-04-08T07:06:25.071Z,97.62
2023-04-08T07:07:25.073Z,97.52
2023-04-08T07:08:25.041Z,97.62
2023-04-08T07:09:25.017Z,97.83
2023-04-08T07:10:25.007Z,97.62
2023-04-08T07:11:25.066Z,97.41
2023-04-08T07:12:24.998Z,97.41
2023-04-08T07:13:24.974Z,97.41
2023-04-08T07:14:24.974Z,97.52
2023-04-08T07:15:24.955Z,97.52
2023-04-08T07:16:25.069Z,97.52
2023-04-08T07:17:24.980Z,97.62
2023-04-08T07:18:24.933Z,97.52
2023-04-08T07:19:24.944Z,97.72
2023-04-08T07:20:24.946Z,97.72
2023-04-08T07:21:24.894Z,97.31
2023-04-08T07:22:24.893Z,97.47
2023-04-08T07:23:24.883Z,97.72
2023-04-08T07:24:24.870Z,97.47
2023-04-08T07:25:24.882Z,97.20
2023-04-08T07:26:24.865Z,97.47
2023-04-08T07:27:24.842Z,97.57
2023-04-08T07:28:24.822Z,97.06
2023-04-08T07:29:24.838Z,96.85
2023-04-08T07:30:24.831Z,96.58
2023-04-08T07:31:24.966Z,96.79
2023-04-08T07:32:24.814Z,97.00
2023-04-08T07:33:24.782Z,97.00
2023-04-08T07:34:24.771Z,97.31
2023-04-08T07:35:24.833Z,97.36
2023-04-08T07:36:24.751Z,97.36
2023-04-08T07:37:24.777Z,97.16
2023-04-08T07:38:24.737Z,97.26
2023-04-08T07:39:24.713Z,97.47
2023-04-08T07:40:24.857Z,97.36
2023-04-08T07:41:24.701Z,97.47
2023-04-08T07:42:24.686Z,97.47
2023-04-08T07:43:24.701Z,97.57
2023-04-08T07:44:24.678Z,97.47
2023-04-08T07:45:24.670Z,97.78
2023-04-08T07:46:24.699Z,97.88
2023-04-08T07:47:24.671Z,97.67
2023-04-08T07:48:24.636Z,97.57
2023-04-08T07:49:24.613Z,97.67
2023-04-08T07:50:24.630Z,97.47
2023-04-08T07:51:24.601Z,97.47
2023-04-08T07:52:24.585Z,97.36
2023-04-08T07:53:24.610Z,97.47
2023-04-08T07:54:24.570Z,97.67
2023-04-08T07:55:24.558Z,97.67
2023-04-08T07:56:24.544Z,97.78
2023-04-08T07:57:24.530Z,97.78
2023-04-08T07:58:24.538Z,97.74
2023-04-08T07:59:24.558Z,97.78
2023-04-08T08:00:24.505Z,97.67
2023-04-08T08:01:24.517Z,97.63
2023-04-08T08:02:24.698Z,97.63
2023-04-08T08:03:24.715Z,97.53
2023-04-08T08:04:24.689Z,97.42
2023-04-08T08:05:24.486Z,97.63
2023-04-08T08:06:24.449Z,97.74
2023-04-08T08:07:24.450Z,97.84
2023-04-08T08:08:24.437Z,97.84
2023-04-08T08:09:24.415Z,97.84
2023-04-08T08:10:24.476Z,97.94
2023-04-08T08:11:24.398Z,97.94
2023-04-08T08:12:24.392Z,98.05
2023-04-08T08:13:24.368Z,97.94
2023-04-08T08:14:24.399Z,97.94
2023-04-08T08:15:24.389Z,97.74
2023-04-08T08:16:24.410Z,97.63
2023-04-08T08:17:26.368Z,97.84
2023-04-08T08:18:24.332Z,97.74
2023-04-08T08:19:24.312Z,97.53
2023-04-08T08:20:24.324Z,97.63
2023-04-08T08:21:24.292Z,97.63
2023-04-08T08:22:24.298Z,97.84
2023-04-08T08:23:24.277Z,97.53
2023-04-08T08:24:24.270Z,97.74
2023-04-08T08:25:26.130Z,97.79
2023-04-08T08:26:24.250Z,97.79
2023-04-08T08:27:24.256Z,97.79
2023-04-08T08:28:24.249Z,98.00
2023-04-08T08:29:24.214Z,97.89
2023-04-08T08:30:24.229Z,97.38
2023-04-08T08:31:24.287Z,97.38
2023-04-08T08:32:24.259Z,96.97
2023-04-08T08:33:24.195Z,97.07
2023-04-08T08:34:24.172Z,96.86
2023-04-08T08:35:24.189Z,97.07
2023-04-08T08:36:24.148Z,96.86
2023-04-08T08:37:24.146Z,96.66
2023-04-08T08:38:24.196Z,96.55
2023-04-08T08:39:24.137Z,96.24
2023-04-08T08:40:24.129Z,96.55
2023-04-08T08:41:24.108Z,96.34
2023-04-08T08:42:24.113Z,96.34
2023-04-08T08:43:24.072Z,96.34
2023-04-08T08:44:24.088Z,96.24
2023-04-08T08:45:24.080Z,96.34
2023-04-08T08:46:24.161Z,96.24
2023-04-08T08:47:24.053Z,96.45
2023-04-08T08:48:24.079Z,96.45
2023-04-08T08:49:24.024Z,96.66
2023-04-08T08:50:24.012Z,96.66
2023-04-08T08:51:24.022Z,96.55
2023-04-08T08:52:23.988Z,96.66
2023-04-08T08:53:23.985Z,96.97
2023-04-08T08:54:23.989Z,96.86
2023-04-08T08:56:23.985Z,96.86
2023-04-08T08:57:24.003Z,96.72
2023-04-08T08:58:23.936Z,96.20
2023-04-08T08:59:23.921Z,95.99
2023-04-08T09:00:23.931Z,96.20
2023-04-08T09:01:23.983Z,96.30
2023-04-08T09:02:23.962Z,96.30
2023-04-08T09:03:24.113Z,96.30
2023-04-08T09:04:24.017Z,96.20
2023-04-08T09:05:24.083Z,96.09
2023-04-08T09:06:23.861Z,95.99
2023-04-08T09:07:23.865Z,96.09
2023-04-08T09:08:23.828Z,96.30
2023-04-08T09:09:23.838Z,96.20
2023-04-08T09:10:23.825Z,96.09
2023-04-08T09:11:23.811Z,95.99
2023-04-08T09:12:23.793Z,96.09
2023-04-08T09:13:23.787Z,96.20
2023-04-08T09:14:23.801Z,96.20
2023-04-08T09:15:23.766Z,96.30
2023-04-08T09:16:23.813Z,96.41
2023-04-08T09:17:23.741Z,96.51
2023-04-08T09:18:23.728Z,96.72
2023-04-08T09:19:23.749Z,96.82
2023-04-08T09:20:23.726Z,96.72
2023-04-08T09:21:23.702Z,96.72
2023-04-08T09:22:23.715Z,96.61
2023-04-08T09:23:23.677Z,96.72
2023-04-08T09:24:23.673Z,96.82
2023-04-08T09:25:23.698Z,97.13
2023-04-08T09:26:23.665Z,96.92
2023-04-08T09:27:23.647Z,96.92
2023-04-08T09:28:23.643Z,96.82
2023-04-08T09:29:26.328Z,96.41
2023-04-08T09:30:23.621Z,96.20
2023-04-08T09:31:23.636Z,96.20
2023-04-08T09:32:23.596Z,96.20
2023-04-08T09:33:23.580Z,96.20
2023-04-08T09:34:23.602Z,95.99
2023-04-08T09:35:23.571Z,95.99
2023-04-08T09:36:23.553Z,95.89
2023-04-08T09:37:23.556Z,96.30
2023-04-08T09:38:23.535Z,96.30
2023-04-08T09:39:23.576Z,96.30
2023-04-08T09:40:23.531Z,96.09
2023-04-08T09:41:23.526Z,96.09
2023-04-08T09:42:23.493Z,96.20
2023-04-08T09:43:23.491Z,96.41
2023-04-08T09:44:23.501Z,95.99
2023-04-08T09:45:23.560Z,95.89
2023-04-08T09:46:23.472Z,96.20
2023-04-08T09:47:23.507Z,96.09
2023-04-08T09:48:23.433Z,96.20
2023-04-08T09:49:23.448Z,96.41
2023-04-08T09:50:23.419Z,96.09
2023-04-08T09:51:23.403Z,96.26
2023-04-08T09:52:23.420Z,96.15
2023-04-08T09:53:23.490Z,96.36
2023-04-08T09:54:23.381Z,96.05
2023-04-08T09:55:23.376Z,96.15
2023-04-08T09:56:23.358Z,96.36
2023-04-08T09:57:23.349Z,96.47
2023-04-08T09:58:23.360Z,96.47
2023-04-08T09:59:23.323Z,96.47
2023-04-08T10:00:23.317Z,96.26
2023-04-08T10:01:23.406Z,96.15
2023-04-08T10:02:23.347Z,96.05
2023-04-08T10:03:23.421Z,96.05
2023-04-08T10:04:23.372Z,96.15
2023-04-08T10:05:23.263Z,96.36
2023-04-08T10:06:23.259Z,96.56
2023-04-08T10:07:23.247Z,96.47
2023-04-08T10:08:23.257Z,96.47
2023-04-08T10:09:23.229Z,96.47
2023-04-08T10:10:23.276Z,96.36
2023-04-08T10:11:23.204Z,96.47
2023-04-08T10:12:23.198Z,96.15
2023-04-08T10:13:23.190Z,96.15
2023-04-08T10:14:23.179Z,96.36
2023-04-08T10:15:23.163Z,96.26
2023-04-08T10:16:23.190Z,96.15
2023-04-08T10:17:23.185Z,96.15
2023-04-08T10:18:23.135Z,96.05
2023-04-08T10:19:23.134Z,96.15
2023-04-08T10:20:23.112Z,96.15
2023-04-08T10:21:23.131Z,96.36
2023-04-08T10:22:23.105Z,96.36
2023-04-08T10:23:23.087Z,96.26
2023-04-08T10:24:23.073Z,96.36
2023-04-08T10:25:23.070Z,96.36
2023-04-08T10:26:23.057Z,96.15
2023-04-08T10:27:23.064Z,96.15
2023-04-08T10:28:23.061Z,96.26
2023-04-08T10:29:23.026Z,96.47
2023-04-08T10:30:23.014Z,96.56
2023-04-08T10:31:23.056Z,96.77
2023-04-08T10:32:23.017Z,96.98
2023-04-08T10:33:22.998Z,96.94
2023-04-08T10:34:22.982Z,96.62
2023-04-08T10:35:23.005Z,96.62
2023-04-08T10:36:22.947Z,96.73
2023-04-08T10:37:22.954Z,96.94
2023-04-08T10:38:22.947Z,97.04
2023-04-08T10:39:22.926Z,96.94
2023-04-08T10:40:22.918Z,97.25
2023-04-08T10:41:22.902Z,96.83
2023-04-08T10:42:22.894Z,96.62
2023-04-08T10:43:22.886Z,96.42
2023-04-08T10:44:22.903Z,96.62
2023-04-08T10:45:22.860Z,96.94
2023-04-08T10:46:22.939Z,96.83
2023-04-08T10:47:22.871Z,97.04
2023-04-08T10:48:22.826Z,97.04
2023-04-08T10:49:22.840Z,97.04
2023-04-08T10:50:22.807Z,97.04
2023-04-08T10:51:22.818Z,97.04
2023-04-08T10:52:22.818Z,96.83
2023-04-08T10:53:22.779Z,96.73
2023-04-08T10:54:22.788Z,96.73
2023-04-08T10:55:22.789Z,96.62
2023-04-08T10:56:22.774Z,96.83
2023-04-08T10:57:22.735Z,96.62
2023-04-08T10:58:22.739Z,96.62
2023-04-08T10:59:22.744Z,96.52
2023-04-08T11:00:22.734Z,96.11
2023-04-08T11:01:22.759Z,96.11
2023-04-08T11:02:22.893Z,96.11
2023-04-08T11:03:22.936Z,96.21
2023-04-08T11:04:22.759Z,96.42
2023-04-08T11:05:22.691Z,96.31
2023-04-08T11:06:22.651Z,96.31
2023-04-08T11:07:22.650Z,96.11
2023-04-08T11:08:22.636Z,96.21
2023-04-08T11:09:22.653Z,96.21
2023-04-08T11:10:22.620Z,96.21
2023-04-08T11:11:22.612Z,96.42
2023-04-08T11:12:22.591Z,96.52
2023-04-08T11:13:22.590Z,96.42
2023-04-08T11:14:22.572Z,96.62
2023-04-08T11:15:22.581Z,96.42
2023-04-08T11:16:23.277Z,96.52
2023-04-08T11:17:22.560Z,96.62
2023-04-08T11:18:22.534Z,96.52
2023-04-08T11:19:22.530Z,96.52
2023-04-08T11:20:22.514Z,96.42
2023-04-08T11:21:22.507Z,96.52
2023-04-08T11:22:22.522Z,96.62
2023-04-08T11:23:22.481Z,96.58
2023-04-08T11:24:22.492Z,96.69
2023-04-08T11:25:22.471Z,96.79
2023-04-08T11:26:22.473Z,96.89
2023-04-08T11:27:22.465Z,96.69
2023-04-08T11:28:22.430Z,96.48
2023-04-08T11:29:22.442Z,96.27
2023-04-08T11:30:22.422Z,96.37
2023-04-08T11:31:24.669Z,96.17
2023-04-08T11:32:22.492Z,96.27
2023-04-08T11:33:22.379Z,96.58
2023-04-08T11:34:22.401Z,96.58
2023-04-08T11:35:22.351Z,96.48
2023-04-08T11:36:22.352Z,96.06
2023-04-08T11:37:22.347Z,96.27
2023-04-08T11:38:22.330Z,96.27
2023-04-08T11:39:22.333Z,96.37
2023-04-08T11:40:22.314Z,96.27
2023-04-08T11:41:22.299Z,96.37
2023-04-08T11:42:22.283Z,96.48
2023-04-08T11:43:22.295Z,96.58
2023-04-08T11:44:22.280Z,96.58
2023-04-08T11:45:22.268Z,96.58
2023-04-08T11:46:22.303Z,96.89
2023-04-08T11:47:22.250Z,96.79
2023-04-08T11:48:22.225Z,96.89
2023-04-08T11:49:22.238Z,96.89
2023-04-08T11:50:22.223Z,96.69
2023-04-08T11:51:22.193Z,96.69
2023-04-08T11:52:22.188Z,97.09
2023-04-08T11:53:22.169Z,97.09
2023-04-08T11:54:22.165Z,97.09
2023-04-08T11:55:22.186Z,96.89
2023-04-08T11:56:22.159Z,96.89
2023-04-08T11:57:22.162Z,96.89
2023-04-08T11:58:22.123Z,96.79
2023-04-08T11:59:22.129Z,97.09
2023-04-08T12:00:22.183Z,97.20
2023-04-08T12:01:22.144Z,97.16
2023-04-08T12:02:22.251Z,97.16
2023-04-08T12:03:22.159Z,96.99
2023-04-08T12:04:22.194Z,97.05
2023-04-08T12:05:22.098Z,96.95
2023-04-08T12:06:22.040Z,96.95
2023-04-08T12:07:22.045Z,96.84
2023-04-08T12:08:22.039Z,96.64
2023-04-08T12:09:22.037Z,96.44
2023-04-08T12:10:21.995Z,96.64
2023-04-08T12:11:21.990Z,96.53
2023-04-08T12:12:21.971Z,96.64
2023-04-08T12:13:21.986Z,96.44
2023-04-08T12:14:21.956Z,96.53
2023-04-08T12:15:21.973Z,96.74
2023-04-08T12:16:22.010Z,96.95
2023-04-08T12:17:21.917Z,97.05
2023-04-08T12:18:21.909Z,96.84
2023-04-08T12:19:21.904Z,96.64
2023-04-08T12:20:21.890Z,96.53
2023-04-08T12:21:21.907Z,96.64
2023-04-08T12:22:21.872Z,97.05
2023-04-08T12:23:21.878Z,96.95
2023-04-08T12:24:21.839Z,96.53
2023-04-08T12:25:21.874Z,96.33
2023-04-08T12:26:21.823Z,96.44
2023-04-08T12:27:21.838Z,96.64
2023-04-08T12:28:21.806Z,96.64
2023-04-08T12:29:21.792Z,96.74
2023-04-08T12:30:21.801Z,96.64
2023-04-08T12:31:21.834Z,96.53
2023-04-08T12:32:21.825Z,96.53
2023-04-08T12:33:21.749Z,96.74
2023-04-08T12:34:21.754Z,97.05
2023-04-08T12:35:21.751Z,96.95
2023-04-08T12:36:21.789Z,96.74
2023-04-08T12:37:21.734Z,96.84
2023-04-08T12:38:21.746Z,96.64
2023-04-08T12:39:21.703Z,96.64
2023-04-08T12:40:21.700Z,96.53
2023-04-08T12:41:21.679Z,96.33
2023-04-08T12:42:21.678Z,96.53
2023-04-08T12:43:21.667Z,96.44
2023-04-08T12:44:21.671Z,96.53
2023-04-08T12:45:21.637Z,96.64
2023-04-08T12:46:21.648Z,96.95
2023-04-08T12:47:22.258Z,97.05
2023-04-08T12:48:21.623Z,96.74
2023-04-08T12:49:22.014Z,96.74
2023-04-08T12:50:21.602Z,96.74
2023-04-08T12:51:21.571Z,96.84
2023-04-08T12:52:21.576Z,97.05
2023-04-08T12:53:21.565Z,97.26
2023-04-08T12:54:21.566Z,97.16